Terminal Aerodrome Forecast
Issued by NWS

Home | Current Version | Previous Version | Graphics & Text | Print | Product List | Glossary On
Versions: 1 2 3 4 5 6 7 8 9 10 11 12 13 14 15 16 17 18 19 20 21 22 23 24 25 26 27 28
850
FTUS43 KABR 121732
TAFPIR
TAF
KPIR 121732Z 1218/1318 04008KT P6SM SCT016 OVC025
     FM121900 05009KT P6SM BKN030
     FM130500 12010KT P6SM OVC040
     FM130900 12013KT 5SM BR OVC030
     FM131100 12016KT 3SM -SN OVC020=

USA.gov is the U.S. government's official web portal to all federal, state and local government web resources and services.